sensor_id;sensor_type;location;lat;lon;timestamp;temperature;humidity
65199;HTU21D;52170;45.018;37.910;2023-04-24T00:00:33;7.05;79.38
65199;HTU21D;52170;45.018;37.910;2023-04-24T00:02:59;7.04;79.43
65199;HTU21D;52170;45.018;37.910;2023-04-24T00:05:25;6.99;79.98
65199;HTU21D;52170;45.018;37.910;2023-04-24T00:07:50;6.98;79.78
65199;HTU21D;52170;45.018;37.910;2023-04-24T00:10:18;6.97;80.09
65199;HTU21D;52170;45.018;37.910;2023-04-24T00:12:44;6.93;80.20
65199;HTU21D;52170;45.018;37.910;2023-04-24T00:15:10;6.88;80.24
65199;HTU21D;52170;45.018;37.910;2023-04-24T00:17:36;6.83;80.68
65199;HTU21D;52170;45.018;37.910;2023-04-24T00:20:02;6.78;81.44
65199;HTU21D;52170;45.018;37.910;2023-04-24T00:22:30;6.70;80.98
65199;HTU21D;52170;45.018;37.910;2023-04-24T00:24:56;6.70;80.62
65199;HTU21D;52170;45.018;37.910;2023-04-24T00:27:22;6.70;80.75
65199;HTU21D;52170;45.018;37.910;2023-04-24T00:29:48;6.66;80.66
65199;HTU21D;52170;45.018;37.910;2023-04-24T00:32:14;6.67;80.46
65199;HTU21D;52170;45.018;37.910;2023-04-24T00:34:39;6.69;80.29
65199;HTU21D;52170;45.018;37.910;2023-04-24T00:37:05;6.71;80.16
65199;HTU21D;52170;45.018;37.910;2023-04-24T00:39:31;6.67;80.64
65199;HTU21D;52170;45.018;37.910;2023-04-24T00:41:57;6.64;80.50
65199;HTU21D;52170;45.018;37.910;2023-04-24T00:44:23;6.63;80.65
65199;HTU21D;52170;45.018;37.910;2023-04-24T00:46:49;6.59;80.65
65199;HTU21D;52170;45.018;37.910;2023-04-24T00:49:21;6.58;80.64
65199;HTU21D;52170;45.018;37.910;2023-04-24T00:51:47;6.60;80.48
65199;HTU21D;52170;45.018;37.910;2023-04-24T00:54:14;6.60;80.61
65199;HTU21D;52170;45.018;37.910;2023-04-24T00:56:40;6.56;80.59
65199;HTU21D;52170;45.018;37.910;2023-04-24T00:59:08;6.55;80.54
65199;HTU21D;52170;45.018;37.910;2023-04-24T01:01:34;6.55;80.47
65199;HTU21D;52170;45.018;37.910;2023-04-24T01:04:00;6.54;80.49
65199;HTU21D;52170;45.018;37.910;2023-04-24T01:06:29;6.55;80.41
65199;HTU21D;52170;45.018;37.910;2023-04-24T01:08:57;6.54;80.56
65199;HTU21D;52170;45.018;37.910;2023-04-24T01:11:22;6.49;81.27
65199;HTU21D;52170;45.018;37.910;2023-04-24T01:13:48;6.44;81.10
65199;HTU21D;52170;45.018;37.910;2023-04-24T01:16:14;6.44;81.11
65199;HTU21D;52170;45.018;37.910;2023-04-24T01:18:40;6.42;81.45
65199;HTU21D;52170;45.018;37.910;2023-04-24T01:21:06;6.39;83.23
65199;HTU21D;52170;45.018;37.910;2023-04-24T01:23:34;6.33;82.59
65199;HTU21D;52170;45.018;37.910;2023-04-24T01:26:00;6.31;83.00
65199;HTU21D;52170;45.018;37.910;2023-04-24T01:28:26;6.28;82.87
65199;HTU21D;52170;45.018;37.910;2023-04-24T01:30:52;6.28;82.28
65199;HTU21D;52170;45.018;37.910;2023-04-24T01:33:22;6.33;82.23
65199;HTU21D;52170;45.018;37.910;2023-04-24T01:35:48;6.33;81.88
65199;HTU21D;52170;45.018;37.910;2023-04-24T01:38:14;6.33;81.94
65199;HTU21D;52170;45.018;37.910;2023-04-24T01:40:40;6.31;81.97
65199;HTU21D;52170;45.018;37.910;2023-04-24T01:43:05;6.30;81.75
65199;HTU21D;52170;45.018;37.910;2023-04-24T01:45:31;6.30;81.74
65199;HTU21D;52170;45.018;37.910;2023-04-24T01:47:57;6.29;81.65
65199;HTU21D;52170;45.018;37.910;2023-04-24T01:50:23;6.29;81.54
65199;HTU21D;52170;45.018;37.910;2023-04-24T01:52:48;6.28;81.49
65199;HTU21D;52170;45.018;37.910;2023-04-24T01:55:14;6.27;81.49
65199;HTU21D;52170;45.018;37.910;2023-04-24T01:57:40;6.27;81.43
65199;HTU21D;52170;45.018;37.910;2023-04-24T02:00:06;6.26;81.41
65199;HTU21D;52170;45.018;37.910;2023-04-24T02:02:41;6.25;81.41
65199;HTU21D;52170;45.018;37.910;2023-04-24T02:05:07;6.25;81.46
65199;HTU21D;52170;45.018;37.910;2023-04-24T02:07:35;6.23;81.48
65199;HTU21D;52170;45.018;37.910;2023-04-24T02:10:01;6.24;81.41
65199;HTU21D;52170;45.018;37.910;2023-04-24T02:12:26;6.25;81.49
65199;HTU21D;52170;45.018;37.910;2023-04-24T02:14:52;6.24;81.46
65199;HTU21D;52170;45.018;37.910;2023-04-24T02:17:18;6.23;81.67
65199;HTU21D;52170;45.018;37.910;2023-04-24T02:19:44;6.21;81.54
65199;HTU21D;52170;45.018;37.910;2023-04-24T02:22:10;6.22;81.46
65199;HTU21D;52170;45.018;37.910;2023-04-24T02:24:36;6.20;81.64
65199;HTU21D;52170;45.018;37.910;2023-04-24T02:27:02;6.17;81.82
65199;HTU21D;52170;45.018;37.910;2023-04-24T02:29:28;6.16;81.72
65199;HTU21D;52170;45.018;37.910;2023-04-24T02:31:54;6.17;81.60
65199;HTU21D;52170;45.018;37.910;2023-04-24T02:34:20;6.19;81.55
65199;HTU21D;52170;45.018;37.910;2023-04-24T02:36:46;6.20;81.46
65199;HTU21D;52170;45.018;37.910;2023-04-24T02:39:14;6.22;81.39
65199;HTU21D;52170;45.018;37.910;2023-04-24T02:41:42;6.25;81.28
65199;HTU21D;52170;45.018;37.910;2023-04-24T02:44:08;6.25;81.25
65199;HTU21D;52170;45.018;37.910;2023-04-24T02:46:34;6.27;81.22
65199;HTU21D;52170;45.018;37.910;2023-04-24T02:48:59;6.27;81.28
65199;HTU21D;52170;45.018;37.910;2023-04-24T02:51:25;6.28;81.61
65199;HTU21D;52170;45.018;37.910;2023-04-24T02:53:52;6.30;81.41
65199;HTU21D;52170;45.018;37.910;2023-04-24T02:56:18;6.37;81.27
65199;HTU21D;52170;45.018;37.910;2023-04-24T02:58:43;6.40;81.14
65199;HTU21D;52170;45.018;37.910;2023-04-24T03:01:09;6.45;81.03
65199;HTU21D;52170;45.018;37.910;2023-04-24T03:03:35;6.50;80.99
65199;HTU21D;52170;45.018;37.910;2023-04-24T03:06:01;6.54;80.95
65199;HTU21D;52170;45.018;37.910;2023-04-24T03:08:27;6.57;80.94
65199;HTU21D;52170;45.018;37.910;2023-04-24T03:10:53;6.61;80.91
65199;HTU21D;52170;45.018;37.910;2023-04-24T03:13:18;6.67;80.90
65199;HTU21D;52170;45.018;37.910;2023-04-24T03:15:44;6.69;80.91
65199;HTU21D;52170;45.018;37.910;2023-04-24T03:18:11;6.74;80.86
65199;HTU21D;52170;45.018;37.910;2023-04-24T03:20:37;6.80;80.80
65199;HTU21D;52170;45.018;37.910;2023-04-24T03:23:03;6.86;80.72
65199;HTU21D;52170;45.018;37.910;2023-04-24T03:25:29;6.94;80.61
65199;HTU21D;52170;45.018;37.910;2023-04-24T03:27:55;7.01;80.52
65199;HTU21D;52170;45.018;37.910;2023-04-24T03:30:34;7.09;80.44
65199;HTU21D;52170;45.018;37.910;2023-04-24T03:33:01;7.16;80.33
65199;HTU21D;52170;45.018;37.910;2023-04-24T03:35:31;7.24;80.24
65199;HTU21D;52170;45.018;37.910;2023-04-24T03:38:00;7.31;80.14
65199;HTU21D;52170;45.018;37.910;2023-04-24T03:40:41;7.43;80.03
65199;HTU21D;52170;45.018;37.910;2023-04-24T03:43:21;7.53;79.93
65199;HTU21D;52170;45.018;37.910;2023-04-24T03:45:47;7.63;79.83
65199;HTU21D;52170;45.018;37.910;2023-04-24T03:48:13;7.74;80.01
65199;HTU21D;52170;45.018;37.910;2023-04-24T03:50:39;7.85;80.09
65199;HTU21D;52170;45.018;37.910;2023-04-24T03:53:08;7.96;79.95
65199;HTU21D;52170;45.018;37.910;2023-04-24T03:55:38;8.05;79.88
65199;HTU21D;52170;45.018;37.910;2023-04-24T03:58:03;8.16;79.85
65199;HTU21D;52170;45.018;37.910;2023-04-24T04:00:29;8.26;79.85
65199;HTU21D;52170;45.018;37.910;2023-04-24T04:03:16;8.41;80.02
65199;HTU21D;52170;45.018;37.910;2023-04-24T04:05:42;8.50;80.32
65199;HTU21D;52170;45.018;37.910;2023-04-24T04:08:08;8.61;80.15
65199;HTU21D;52170;45.018;37.910;2023-04-24T04:10:34;8.71;80.20
65199;HTU21D;52170;45.018;37.910;2023-04-24T04:12:59;8.79;80.90
65199;HTU21D;52170;45.018;37.910;2023-04-24T04:15:25;8.86;80.58
65199;HTU21D;52170;45.018;37.910;2023-04-24T04:17:51;8.93;80.73
65199;HTU21D;52170;45.018;37.910;2023-04-24T04:20:17;9.01;81.13
65199;HTU21D;52170;45.018;37.910;2023-04-24T04:22:42;9.05;80.93
65199;HTU21D;52170;45.018;37.910;2023-04-24T04:25:10;9.08;81.46
65199;HTU21D;52170;45.018;37.910;2023-04-24T04:27:37;9.09;81.46
65199;HTU21D;52170;45.018;37.910;2023-04-24T04:30:08;9.12;81.53
65199;HTU21D;52170;45.018;37.910;2023-04-24T04:32:46;9.17;81.70
65199;HTU21D;52170;45.018;37.910;2023-04-24T04:35:12;9.21;81.65
65199;HTU21D;52170;45.018;37.910;2023-04-24T04:37:38;9.24;81.66
65199;HTU21D;52170;45.018;37.910;2023-04-24T04:40:28;9.29;81.72
65199;HTU21D;52170;45.018;37.910;2023-04-24T04:42:59;9.32;81.95
65199;HTU21D;52170;45.018;37.910;2023-04-24T04:45:29;9.37;81.84
65199;HTU21D;52170;45.018;37.910;2023-04-24T04:48:28;9.42;82.07
65199;HTU21D;52170;45.018;37.910;2023-04-24T04:50:56;9.44;82.17
65199;HTU21D;52170;45.018;37.910;2023-04-24T04:53:23;9.47;82.10
65199;HTU21D;52170;45.018;37.910;2023-04-24T04:55:49;9.49;81.98
65199;HTU21D;52170;45.018;37.910;2023-04-24T04:58:16;9.52;81.96
65199;HTU21D;52170;45.018;37.910;2023-04-24T05:00:43;9.56;82.17
65199;HTU21D;52170;45.018;37.910;2023-04-24T05:03:19;9.61;82.07
65199;HTU21D;52170;45.018;37.910;2023-04-24T05:05:45;9.63;81.96
65199;HTU21D;52170;45.018;37.910;2023-04-24T05:08:13;9.66;81.80
65199;HTU21D;52170;45.018;37.910;2023-04-24T05:10:38;9.70;81.85
65199;HTU21D;52170;45.018;37.910;2023-04-24T05:13:05;9.75;81.75
65199;HTU21D;52170;45.018;37.910;2023-04-24T05:15:31;9.79;81.74
65199;HTU21D;52170;45.018;37.910;2023-04-24T05:17:59;9.81;81.72
65199;HTU21D;52170;45.018;37.910;2023-04-24T05:20:25;9.83;81.65
65199;HTU21D;52170;45.018;37.910;2023-04-24T05:22:51;9.88;81.62
65199;HTU21D;52170;45.018;37.910;2023-04-24T05:25:18;9.89;81.64
65199;HTU21D;52170;45.018;37.910;2023-04-24T05:27:50;9.91;81.69
65199;HTU21D;52170;45.018;37.910;2023-04-24T05:30:17;9.93;81.77
65199;HTU21D;52170;45.018;37.910;2023-04-24T05:32:43;9.95;81.72
65199;HTU21D;52170;45.018;37.910;2023-04-24T05:35:09;9.98;81.67
65199;HTU21D;52170;45.018;37.910;2023-04-24T05:37:35;10.00;81.68
65199;HTU21D;52170;45.018;37.910;2023-04-24T05:40:01;10.06;81.62
65199;HTU21D;52170;45.018;37.910;2023-04-24T05:42:27;10.09;81.79
65199;HTU21D;52170;45.018;37.910;2023-04-24T05:44:52;10.14;82.06
65199;HTU21D;52170;45.018;37.910;2023-04-24T05:47:19;10.18;81.96
65199;HTU21D;52170;45.018;37.910;2023-04-24T05:49:48;10.22;81.86
65199;HTU21D;52170;45.018;37.910;2023-04-24T05:52:13;10.26;81.78
65199;HTU21D;52170;45.018;37.910;2023-04-24T05:54:40;10.31;81.57
65199;HTU21D;52170;45.018;37.910;2023-04-24T05:57:06;10.36;81.52
65199;HTU21D;52170;45.018;37.910;2023-04-24T05:59:48;10.42;81.36
65199;HTU21D;52170;45.018;37.910;2023-04-24T06:02:14;10.51;81.30
65199;HTU21D;52170;45.018;37.910;2023-04-24T06:04:40;10.56;81.15
65199;HTU21D;52170;45.018;37.910;2023-04-24T06:07:05;10.60;81.11
65199;HTU21D;52170;45.018;37.910;2023-04-24T06:09:31;10.67;81.05
65199;HTU21D;52170;45.018;37.910;2023-04-24T06:11:57;10.72;80.97
65199;HTU21D;52170;45.018;37.910;2023-04-24T06:14:29;10.74;81.01
65199;HTU21D;52170;45.018;37.910;2023-04-24T06:17:16;10.79;80.98
65199;HTU21D;52170;45.018;37.910;2023-04-24T06:19:42;10.80;81.12
65199;HTU21D;52170;45.018;37.910;2023-04-24T06:22:07;10.79;81.62
65199;HTU21D;52170;45.018;37.910;2023-04-24T06:24:33;10.71;81.91
65199;HTU21D;52170;45.018;37.910;2023-04-24T06:26:59;10.70;81.79
65199;HTU21D;52170;45.018;37.910;2023-04-24T06:29:25;10.70;81.75
65199;HTU21D;52170;45.018;37.910;2023-04-24T06:31:51;10.71;81.68
65199;HTU21D;52170;45.018;37.910;2023-04-24T06:34:17;10.72;81.65
65199;HTU21D;52170;45.018;37.910;2023-04-24T06:36:42;10.73;81.58
65199;HTU21D;52170;45.018;37.910;2023-04-24T06:39:08;10.75;81.46
65199;HTU21D;52170;45.018;37.910;2023-04-24T06:41:34;10.78;81.47
65199;HTU21D;52170;45.018;37.910;2023-04-24T06:44:00;10.80;81.46
65199;HTU21D;52170;45.018;37.910;2023-04-24T06:46:25;10.83;81.39
65199;HTU21D;52170;45.018;37.910;2023-04-24T06:48:55;10.86;81.30
65199;HTU21D;52170;45.018;37.910;2023-04-24T06:51:24;10.94;81.13
65199;HTU21D;52170;45.018;37.910;2023-04-24T06:53:51;10.99;81.10
65199;HTU21D;52170;45.018;37.910;2023-04-24T06:56:17;11.07;81.10
65199;HTU21D;52170;45.018;37.910;2023-04-24T06:58:42;11.13;80.92
65199;HTU21D;52170;45.018;37.910;2023-04-24T07:01:09;11.24;80.71
65199;HTU21D;52170;45.018;37.910;2023-04-24T07:03:35;11.34;80.52
65199;HTU21D;52170;45.018;37.910;2023-04-24T07:06:01;11.45;80.38
65199;HTU21D;52170;45.018;37.910;2023-04-24T07:08:28;11.53;80.30
65199;HTU21D;52170;45.018;37.910;2023-04-24T07:10:56;11.57;80.27
65199;HTU21D;52170;45.018;37.910;2023-04-24T07:13:22;11.61;81.27
65199;HTU21D;52170;45.018;37.910;2023-04-24T07:15:48;11.64;80.62
65199;HTU21D;52170;45.018;37.910;2023-04-24T07:18:19;11.72;80.40
65199;HTU21D;52170;45.018;37.910;2023-04-24T07:20:45;11.81;80.30
65199;HTU21D;52170;45.018;37.910;2023-04-24T07:23:11;11.84;80.38
65199;HTU21D;52170;45.018;37.910;2023-04-24T07:25:37;11.87;80.55
65199;HTU21D;52170;45.018;37.910;2023-04-24T07:28:03;11.90;80.56
65199;HTU21D;52170;45.018;37.910;2023-04-24T07:30:30;11.93;80.88
65199;HTU21D;52170;45.018;37.910;2023-04-24T07:32:55;11.96;80.74
65199;HTU21D;52170;45.018;37.910;2023-04-24T07:35:21;11.98;81.14
65199;HTU21D;52170;45.018;37.910;2023-04-24T07:37:47;12.03;80.88
65199;HTU21D;52170;45.018;37.910;2023-04-24T07:40:13;12.08;80.89
65199;HTU21D;52170;45.018;37.910;2023-04-24T07:42:39;12.11;80.75
65199;HTU21D;52170;45.018;37.910;2023-04-24T07:45:05;12.12;80.73
65199;HTU21D;52170;45.018;37.910;2023-04-24T07:47:31;12.17;80.69
65199;HTU21D;52170;45.018;37.910;2023-04-24T07:49:57;12.23;80.56
65199;HTU21D;52170;45.018;37.910;2023-04-24T07:52:23;12.28;80.48
65199;HTU21D;52170;45.018;37.910;2023-04-24T07:54:49;12.30;80.49
65199;HTU21D;52170;45.018;37.910;2023-04-24T07:57:15;12.35;80.46
65199;HTU21D;52170;45.018;37.910;2023-04-24T07:59:41;12.35;80.50
65199;HTU21D;52170;45.018;37.910;2023-04-24T08:02:07;12.33;80.66
65199;HTU21D;52170;45.018;37.910;2023-04-24T08:04:33;12.33;80.72
65199;HTU21D;52170;45.018;37.910;2023-04-24T08:06:58;12.32;80.81
65199;HTU21D;52170;45.018;37.910;2023-04-24T08:09:24;12.31;80.80
65199;HTU21D;52170;45.018;37.910;2023-04-24T08:11:50;12.30;80.85
65199;HTU21D;52170;45.018;37.910;2023-04-24T08:14:15;12.30;80.87
65199;HTU21D;52170;45.018;37.910;2023-04-24T08:16:41;12.33;80.79
65199;HTU21D;52170;45.018;37.910;2023-04-24T08:19:07;12.34;80.88
65199;HTU21D;52170;45.018;37.910;2023-04-24T08:21:33;12.29;81.23
65199;HTU21D;52170;45.018;37.910;2023-04-24T08:23:58;12.21;81.23
65199;HTU21D;52170;45.018;37.910;2023-04-24T08:26:24;12.21;81.31
65199;HTU21D;52170;45.018;37.910;2023-04-24T08:28:50;12.19;81.42
65199;HTU21D;52170;45.018;37.910;2023-04-24T08:31:15;12.19;81.36
65199;HTU21D;52170;45.018;37.910;2023-04-24T08:33:41;12.18;81.36
65199;HTU21D;52170;45.018;37.910;2023-04-24T08:36:07;12.17;81.30
65199;HTU21D;52170;45.018;37.910;2023-04-24T08:38:33;12.18;81.23
65199;HTU21D;52170;45.018;37.910;2023-04-24T08:40:59;12.17;81.46
65199;HTU21D;52170;45.018;37.910;2023-04-24T08:43:25;12.14;81.52
65199;HTU21D;52170;45.018;37.910;2023-04-24T08:45:51;12.13;81.81
65199;HTU21D;52170;45.018;37.910;2023-04-24T08:48:17;12.11;81.60
65199;HTU21D;52170;45.018;37.910;2023-04-24T08:50:43;12.11;81.54
65199;HTU21D;52170;45.018;37.910;2023-04-24T08:53:10;12.11;81.46
65199;HTU21D;52170;45.018;37.910;2023-04-24T08:55:37;12.12;81.39
65199;HTU21D;52170;45.018;37.910;2023-04-24T08:58:02;12.12;81.33
65199;HTU21D;52170;45.018;37.910;2023-04-24T09:00:29;12.16;81.24
65199;HTU21D;52170;45.018;37.910;2023-04-24T09:02:55;12.20;81.25
65199;HTU21D;52170;45.018;37.910;2023-04-24T09:05:21;12.25;81.14
65199;HTU21D;52170;45.018;37.910;2023-04-24T09:07:49;12.27;81.07
65199;HTU21D;52170;45.018;37.910;2023-04-24T09:10:15;12.32;80.98
65199;HTU21D;52170;45.018;37.910;2023-04-24T09:12:41;12.37;80.94
65199;HTU21D;52170;45.018;37.910;2023-04-24T09:15:07;12.45;81.52
65199;HTU21D;52170;45.018;37.910;2023-04-24T09:17:33;12.49;81.07
65199;HTU21D;52170;45.018;37.910;2023-04-24T09:20:00;12.56;81.15
65199;HTU21D;52170;45.018;37.910;2023-04-24T09:22:29;12.64;81.23
65199;HTU21D;52170;45.018;37.910;2023-04-24T09:25:05;12.72;80.86
65199;HTU21D;52170;45.018;37.910;2023-04-24T09:27:32;12.74;81.31
65199;HTU21D;52170;45.018;37.910;2023-04-24T09:29:58;12.70;81.64
65199;HTU21D;52170;45.018;37.910;2023-04-24T09:32:24;12.65;81.29
65199;HTU21D;52170;45.018;37.910;2023-04-24T09:37:39;12.72;81.11
65199;HTU21D;52170;45.018;37.910;2023-04-24T09:40:08;12.77;81.01
65199;HTU21D;52170;45.018;37.910;2023-04-24T09:42:34;12.79;81.44
65199;HTU21D;52170;45.018;37.910;2023-04-24T09:45:01;12.80;81.08
65199;HTU21D;52170;45.018;37.910;2023-04-24T09:47:26;12.87;80.89
65199;HTU21D;52170;45.018;37.910;2023-04-24T09:49:53;12.93;80.76
65199;HTU21D;52170;45.018;37.910;2023-04-24T09:52:23;13.01;80.65
65199;HTU21D;52170;45.018;37.910;2023-04-24T09:54:53;12.99;80.67
65199;HTU21D;52170;45.018;37.910;2023-04-24T09:57:19;13.01;80.70
65199;HTU21D;52170;45.018;37.910;2023-04-24T09:59:46;13.01;80.65
65199;HTU21D;52170;45.018;37.910;2023-04-24T10:02:18;13.01;80.76
65199;HTU21D;52170;45.018;37.910;2023-04-24T10:04:53;12.97;81.39
65199;HTU21D;52170;45.018;37.910;2023-04-24T10:07:19;13.00;80.94
65199;HTU21D;52170;45.018;37.910;2023-04-24T10:09:45;13.06;80.73
65199;HTU21D;52170;45.018;37.910;2023-04-24T10:12:10;13.12;80.55
65199;HTU21D;52170;45.018;37.910;2023-04-24T10:14:37;13.16;80.47
65199;HTU21D;52170;45.018;37.910;2023-04-24T10:17:03;13.18;80.48
65199;HTU21D;52170;45.018;37.910;2023-04-24T10:19:29;13.20;80.48
65199;HTU21D;52170;45.018;37.910;2023-04-24T10:21:55;13.22;80.49
65199;HTU21D;52170;45.018;37.910;2023-04-24T10:24:21;13.21;80.52
65199;HTU21D;52170;45.018;37.910;2023-04-24T10:26:47;13.23;80.56
65199;HTU21D;52170;45.018;37.910;2023-04-24T10:29:14;13.22;80.56
65199;HTU21D;52170;45.018;37.910;2023-04-24T10:31:40;13.20;80.63
65199;HTU21D;52170;45.018;37.910;2023-04-24T10:34:07;13.18;80.72
65199;HTU21D;52170;45.018;37.910;2023-04-24T10:36:34;13.15;80.77
65199;HTU21D;52170;45.018;37.910;2023-04-24T10:39:00;13.15;80.83
65199;HTU21D;52170;45.018;37.910;2023-04-24T10:41:27;13.15;80.83
65199;HTU21D;52170;45.018;37.910;2023-04-24T10:44:07;13.15;80.85
65199;HTU21D;52170;45.018;37.910;2023-04-24T10:46:34;13.16;80.84
65199;HTU21D;52170;45.018;37.910;2023-04-24T10:48:59;13.21;80.78
65199;HTU21D;52170;45.018;37.910;2023-04-24T10:51:44;13.24;80.72
65199;HTU21D;52170;45.018;37.910;2023-04-24T10:54:33;13.22;80.69
65199;HTU21D;52170;45.018;37.910;2023-04-24T10:59:48;13.15;80.94
65199;HTU21D;52170;45.018;37.910;2023-04-24T11:02:14;13.10;81.05
65199;HTU21D;52170;45.018;37.910;2023-04-24T11:04:40;13.05;81.21
65199;HTU21D;52170;45.018;37.910;2023-04-24T11:07:08;13.05;81.13
65199;HTU21D;52170;45.018;37.910;2023-04-24T11:09:34;13.07;81.28
65199;HTU21D;52170;45.018;37.910;2023-04-24T11:12:05;13.01;81.34
65199;HTU21D;52170;45.018;37.910;2023-04-24T11:17:27;12.87;82.30
65199;HTU21D;52170;45.018;37.910;2023-04-24T11:19:53;12.81;81.91
65199;HTU21D;52170;45.018;37.910;2023-04-24T11:22:25;12.82;82.53
65199;HTU21D;52170;45.018;37.910;2023-04-24T11:24:54;12.76;82.29
65199;HTU21D;52170;45.018;37.910;2023-04-24T11:27:25;12.70;82.66
65199;HTU21D;52170;45.018;37.910;2023-04-24T11:34:56;12.71;82.18
65199;HTU21D;52170;45.018;37.910;2023-04-24T11:37:22;12.72;82.03
65199;HTU21D;52170;45.018;37.910;2023-04-24T11:39:50;12.67;82.46
65199;HTU21D;52170;45.018;37.910;2023-04-24T11:42:16;12.63;82.31
65199;HTU21D;52170;45.018;37.910;2023-04-24T11:44:42;12.63;82.23
65199;HTU21D;52170;45.018;37.910;2023-04-24T11:47:08;12.63;82.17
65199;HTU21D;52170;45.018;37.910;2023-04-24T11:49:36;12.64;82.11
65199;HTU21D;52170;45.018;37.910;2023-04-24T11:52:02;12.66;82.08
65199;HTU21D;52170;45.018;37.910;2023-04-24T11:54:28;12.67;82.06
65199;HTU21D;52170;45.018;37.910;2023-04-24T11:56:55;12.70;82.01
65199;HTU21D;52170;45.018;37.910;2023-04-24T11:59:21;12.74;81.94
65199;HTU21D;52170;45.018;37.910;2023-04-24T12:01:47;12.78;81.90
65199;HTU21D;52170;45.018;37.910;2023-04-24T12:04:14;12.81;81.84
65199;HTU21D;52170;45.018;37.910;2023-04-24T12:06:58;12.87;81.75
65199;HTU21D;52170;45.018;37.910;2023-04-24T12:09:24;12.89;81.69
65199;HTU21D;52170;45.018;37.910;2023-04-24T12:11:54;12.92;81.65
65199;HTU21D;52170;45.018;37.910;2023-04-24T12:14:22;12.95;81.62
65199;HTU21D;52170;45.018;37.910;2023-04-24T12:16:48;12.96;81.60
65199;HTU21D;52170;45.018;37.910;2023-04-24T12:19:20;12.96;81.59
65199;HTU21D;52170;45.018;37.910;2023-04-24T12:21:58;12.99;81.59
65199;HTU21D;52170;45.018;37.910;2023-04-24T12:24:24;13.01;81.59
65199;HTU21D;52170;45.018;37.910;2023-04-24T12:26:50;13.00;81.67
65199;HTU21D;52170;45.018;37.910;2023-04-24T12:29:22;12.97;81.72
65199;HTU21D;52170;45.018;37.910;2023-04-24T12:31:47;12.93;81.81
65199;HTU21D;52170;45.018;37.910;2023-04-24T12:34:20;12.95;81.81
65199;HTU21D;52170;45.018;37.910;2023-04-24T12:36:46;12.97;81.74
65199;HTU21D;52170;45.018;37.910;2023-04-24T12:39:16;12.97;81.71
65199;HTU21D;52170;45.018;37.910;2023-04-24T12:41:54;12.97;81.72
65199;HTU21D;52170;45.018;37.910;2023-04-24T12:44:28;12.96;81.73
65199;HTU21D;52170;45.018;37.910;2023-04-24T12:46:54;12.96;81.75
65199;HTU21D;52170;45.018;37.910;2023-04-24T12:49:20;12.94;81.81
65199;HTU21D;52170;45.018;37.910;2023-04-24T12:51:45;12.93;81.84
65199;HTU21D;52170;45.018;37.910;2023-04-24T12:54:11;12.91;81.88
65199;HTU21D;52170;45.018;37.910;2023-04-24T12:56:37;12.89;81.94
65199;HTU21D;52170;45.018;37.910;2023-04-24T12:59:04;12.88;82.01
65199;HTU21D;52170;45.018;37.910;2023-04-24T13:01:30;12.87;82.04
65199;HTU21D;52170;45.018;37.910;2023-04-24T13:03:56;12.86;82.05
65199;HTU21D;52170;45.018;37.910;2023-04-24T13:06:21;12.87;82.03
65199;HTU21D;52170;45.018;37.910;2023-04-24T13:08:47;12.87;82.01
65199;HTU21D;52170;45.018;37.910;2023-04-24T13:11:13;12.88;82.01
65199;HTU21D;52170;45.018;37.910;2023-04-24T13:13:39;12.90;81.99
65199;HTU21D;52170;45.018;37.910;2023-04-24T13:16:05;12.92;81.94
65199;HTU21D;52170;45.018;37.910;2023-04-24T13:18:31;12.92;81.91
65199;HTU21D;52170;45.018;37.910;2023-04-24T13:20:56;12.93;81.90
65199;HTU21D;52170;45.018;37.910;2023-04-24T13:23:22;12.97;81.88
65199;HTU21D;52170;45.018;37.910;2023-04-24T13:25:48;12.97;81.84
65199;HTU21D;52170;45.018;37.910;2023-04-24T13:28:14;13.02;81.81
65199;HTU21D;52170;45.018;37.910;2023-04-24T13:30:40;13.02;81.76
65199;HTU21D;52170;45.018;37.910;2023-04-24T13:33:06;13.05;81.75
65199;HTU21D;52170;45.018;37.910;2023-04-24T13:35:32;13.06;81.72
65199;HTU21D;52170;45.018;37.910;2023-04-24T13:37:57;13.09;81.68
65199;HTU21D;52170;45.018;37.910;2023-04-24T13:40:23;13.11;81.68
65199;HTU21D;52170;45.018;37.910;2023-04-24T13:42:49;13.14;81.65
65199;HTU21D;52170;45.018;37.910;2023-04-24T13:45:15;13.16;81.64
65199;HTU21D;52170;45.018;37.910;2023-04-24T13:47:41;13.16;81.66
65199;HTU21D;52170;45.018;37.910;2023-04-24T13:50:09;13.19;81.66
65199;HTU21D;52170;45.018;37.910;2023-04-24T13:52:35;13.20;81.64
65199;HTU21D;52170;45.018;37.910;2023-04-24T13:55:01;13.22;81.65
65199;HTU21D;52170;45.018;37.910;2023-04-24T13:57:26;13.24;81.64
65199;HTU21D;52170;45.018;37.910;2023-04-24T13:59:53;13.25;81.63
65199;HTU21D;52170;45.018;37.910;2023-04-24T14:02:21;13.25;81.64
65199;HTU21D;52170;45.018;37.910;2023-04-24T14:04:47;13.23;81.68
65199;HTU21D;52170;45.018;37.910;2023-04-24T14:07:13;13.21;81.81
65199;HTU21D;52170;45.018;37.910;2023-04-24T14:09:39;13.22;81.81
65199;HTU21D;52170;45.018;37.910;2023-04-24T14:12:05;13.23;81.79
65199;HTU21D;52170;45.018;37.910;2023-04-24T14:14:31;13.23;81.79
65199;HTU21D;52170;45.018;37.910;2023-04-24T14:16:57;13.24;81.78
65199;HTU21D;52170;45.018;37.910;2023-04-24T14:19:22;13.24;81.81
65199;HTU21D;52170;45.018;37.910;2023-04-24T14:21:49;13.23;81.80
65199;HTU21D;52170;45.018;37.910;2023-04-24T14:24:15;13.24;81.81
65199;HTU21D;52170;45.018;37.910;2023-04-24T14:26:41;13.22;81.82
65199;HTU21D;52170;45.018;37.910;2023-04-24T14:29:06;13.23;81.85
65199;HTU21D;52170;45.018;37.910;2023-04-24T14:31:32;13.24;81.88
65199;HTU21D;52170;45.018;37.910;2023-04-24T14:33:58;13.23;81.88
65199;HTU21D;52170;45.018;37.910;2023-04-24T14:36:24;13.22;81.89
65199;HTU21D;52170;45.018;37.910;2023-04-24T14:38:49;13.21;81.91
65199;HTU21D;52170;45.018;37.910;2023-04-24T14:41:15;13.19;81.99
65199;HTU21D;52170;45.018;37.910;2023-04-24T14:43:41;13.14;82.05
65199;HTU21D;52170;45.018;37.910;2023-04-24T14:46:07;13.12;82.10
65199;HTU21D;52170;45.018;37.910;2023-04-24T14:48:33;13.11;82.14
65199;HTU21D;52170;45.018;37.910;2023-04-24T14:50:59;13.10;82.14
65199;HTU21D;52170;45.018;37.910;2023-04-24T14:53:24;13.07;82.17
65199;HTU21D;52170;45.018;37.910;2023-04-24T14:55:50;13.05;82.19
65199;HTU21D;52170;45.018;37.910;2023-04-24T14:58:16;13.04;82.23
65199;HTU21D;52170;45.018;37.910;2023-04-24T15:00:41;13.00;82.30
65199;HTU21D;52170;45.018;37.910;2023-04-24T15:03:07;12.99;82.33
65199;HTU21D;52170;45.018;37.910;2023-04-24T15:05:33;12.95;82.33
65199;HTU21D;52170;45.018;37.910;2023-04-24T15:07:59;12.93;82.39
65199;HTU21D;52170;45.018;37.910;2023-04-24T15:10:25;12.90;82.42
65199;HTU21D;52170;45.018;37.910;2023-04-24T15:12:51;12.92;82.46
65199;HTU21D;52170;45.018;37.910;2023-04-24T15:15:17;12.99;82.34
65199;HTU21D;52170;45.018;37.910;2023-04-24T15:17:42;13.11;82.05
65199;HTU21D;52170;45.018;37.910;2023-04-24T15:20:08;13.19;81.81